sensor_id;sensor_type;location;lat;lon;timestamp;P1;durP1;ratioP1;P2;durP2;ratioP2
50483;SDS011;36409;52.168;20.878;2024-02-21T00:01:47;24.90;;;7.60;;
50483;SDS011;36409;52.168;20.878;2024-02-21T00:04:21;20.70;;;7.30;;
50483;SDS011;36409;52.168;20.878;2024-02-21T00:06:53;23.80;;;6.30;;
50483;SDS011;36409;52.168;20.878;2024-02-21T00:09:32;22.43;;;6.83;;
50483;SDS011;36409;52.168;20.878;2024-02-21T00:12:05;24.23;;;7.33;;
50483;SDS011;36409;52.168;20.878;2024-02-21T00:14:41;23.00;;;6.67;;
50483;SDS011;36409;52.168;20.878;2024-02-21T00:17:13;19.80;;;6.40;;
50483;SDS011;36409;52.168;20.878;2024-02-21T00:19:46;18.83;;;6.53;;
50483;SDS011;36409;52.168;20.878;2024-02-21T00:22:16;23.17;;;7.47;;
50483;SDS011;36409;52.168;20.878;2024-02-21T00:24:46;26.60;;;7.47;;
50483;SDS011;36409;52.168;20.878;2024-02-21T00:27:20;22.53;;;6.23;;
50483;SDS011;36409;52.168;20.878;2024-02-21T00:29:53;20.73;;;6.97;;
50483;SDS011;36409;52.168;20.878;2024-02-21T00:32:22;20.80;;;6.87;;
50483;SDS011;36409;52.168;20.878;2024-02-21T00:34:56;22.32;;;7.55;;
50483;SDS011;36409;52.168;20.878;2024-02-21T00:37:26;20.77;;;6.33;;
50483;SDS011;36409;52.168;20.878;2024-02-21T00:39:55;22.40;;;6.83;;
50483;SDS011;36409;52.168;20.878;2024-02-21T00:42:24;20.37;;;6.77;;
50483;SDS011;36409;52.168;20.878;2024-02-21T00:44:54;23.33;;;7.20;;
50483;SDS011;36409;52.168;20.878;2024-02-21T00:47:26;21.80;;;5.87;;
50483;SDS011;36409;52.168;20.878;2024-02-21T00:49:58;19.53;;;6.10;;
50483;SDS011;36409;52.168;20.878;2024-02-21T00:52:28;19.23;;;6.43;;
50483;SDS011;36409;52.168;20.878;2024-02-21T00:55:07;20.07;;;6.77;;
50483;SDS011;36409;52.168;20.878;2024-02-21T00:57:39;20.77;;;7.47;;
50483;SDS011;36409;52.168;20.878;2024-02-21T01:00:10;22.27;;;7.23;;
50483;SDS011;36409;52.168;20.878;2024-02-21T01:02:42;21.20;;;6.90;;
50483;SDS011;36409;52.168;20.878;2024-02-21T01:05:15;25.37;;;7.93;;
50483;SDS011;36409;52.168;20.878;2024-02-21T01:07:50;21.93;;;7.17;;
50483;SDS011;36409;52.168;20.878;2024-02-21T01:10:20;21.80;;;7.30;;
50483;SDS011;36409;52.168;20.878;2024-02-21T01:12:55;20.10;;;7.85;;
50483;SDS011;36409;52.168;20.878;2024-02-21T01:15:25;21.53;;;6.23;;
50483;SDS011;36409;52.168;20.878;2024-02-21T01:17:56;13.80;;;6.63;;
50483;SDS011;36409;52.168;20.878;2024-02-21T01:20:27;19.20;;;7.03;;
50483;SDS011;36409;52.168;20.878;2024-02-21T01:22:56;27.50;;;6.97;;
50483;SDS011;36409;52.168;20.878;2024-02-21T01:25:28;16.40;;;6.47;;
50483;SDS011;36409;52.168;20.878;2024-02-21T01:27:57;19.50;;;6.63;;
50483;SDS011;36409;52.168;20.878;2024-02-21T01:30:27;17.47;;;6.40;;
50483;SDS011;36409;52.168;20.878;2024-02-21T01:32:57;18.67;;;6.03;;
50483;SDS011;36409;52.168;20.878;2024-02-21T01:35:27;21.87;;;6.30;;
50483;SDS011;36409;52.168;20.878;2024-02-21T01:37:56;25.37;;;6.67;;
50483;SDS011;36409;52.168;20.878;2024-02-21T01:40:25;20.70;;;7.27;;
50483;SDS011;36409;52.168;20.878;2024-02-21T01:42:58;18.17;;;7.10;;
50483;SDS011;36409;52.168;20.878;2024-02-21T01:45:30;23.23;;;6.93;;
50483;SDS011;36409;52.168;20.878;2024-02-21T01:48:06;22.15;;;6.75;;
50483;SDS011;36409;52.168;20.878;2024-02-21T01:50:41;20.03;;;5.63;;
50483;SDS011;36409;52.168;20.878;2024-02-21T01:53:11;20.17;;;6.63;;
50483;SDS011;36409;52.168;20.878;2024-02-21T01:55:46;12.65;;;5.35;;
50483;SDS011;36409;52.168;20.878;2024-02-21T01:58:16;18.77;;;6.37;;
50483;SDS011;36409;52.168;20.878;2024-02-21T02:00:47;19.00;;;6.63;;
50483;SDS011;36409;52.168;20.878;2024-02-21T02:03:31;17.20;;;6.77;;
50483;SDS011;36409;52.168;20.878;2024-02-21T02:06:04;22.00;;;7.33;;
50483;SDS011;36409;52.168;20.878;2024-02-21T02:08:45;22.20;;;7.10;;
50483;SDS011;36409;52.168;20.878;2024-02-21T02:11:14;21.13;;;8.07;;
50483;SDS011;36409;52.168;20.878;2024-02-21T02:13:48;25.30;;;8.23;;
50483;SDS011;36409;52.168;20.878;2024-02-21T02:16:17;19.13;;;6.70;;
50483;SDS011;36409;52.168;20.878;2024-02-21T02:18:49;24.57;;;7.53;;
50483;SDS011;36409;52.168;20.878;2024-02-21T02:21:23;19.23;;;7.10;;
50483;SDS011;36409;52.168;20.878;2024-02-21T02:23:56;19.95;;;7.45;;
50483;SDS011;36409;52.168;20.878;2024-02-21T02:26:26;27.33;;;11.43;;
50483;SDS011;36409;52.168;20.878;2024-02-21T02:28:55;35.83;;;15.40;;
50483;SDS011;36409;52.168;20.878;2024-02-21T02:31:25;38.43;;;14.80;;
50483;SDS011;36409;52.168;20.878;2024-02-21T02:33:59;33.17;;;12.03;;
50483;SDS011;36409;52.168;20.878;2024-02-21T02:36:29;31.20;;;12.53;;
50483;SDS011;36409;52.168;20.878;2024-02-21T02:39:01;28.27;;;11.83;;
50483;SDS011;36409;52.168;20.878;2024-02-21T02:41:30;27.20;;;10.45;;
50483;SDS011;36409;52.168;20.878;2024-02-21T02:44:02;25.43;;;9.77;;
50483;SDS011;36409;52.168;20.878;2024-02-21T02:46:32;23.97;;;8.73;;
50483;SDS011;36409;52.168;20.878;2024-02-21T02:49:01;31.40;;;12.43;;
50483;SDS011;36409;52.168;20.878;2024-02-21T02:51:32;28.13;;;10.37;;
50483;SDS011;36409;52.168;20.878;2024-02-21T02:54:04;26.33;;;10.97;;
50483;SDS011;36409;52.168;20.878;2024-02-21T02:56:35;27.07;;;9.83;;
50483;SDS011;36409;52.168;20.878;2024-02-21T02:59:04;25.63;;;10.47;;
50483;SDS011;36409;52.168;20.878;2024-02-21T03:01:34;19.53;;;9.43;;
50483;SDS011;36409;52.168;20.878;2024-02-21T03:04:04;24.47;;;9.27;;
50483;SDS011;36409;52.168;20.878;2024-02-21T03:06:33;25.30;;;9.43;;
50483;SDS011;36409;52.168;20.878;2024-02-21T03:09:06;20.37;;;10.23;;
50483;SDS011;36409;52.168;20.878;2024-02-21T03:11:36;36.27;;;14.60;;
50483;SDS011;36409;52.168;20.878;2024-02-21T03:14:08;29.37;;;13.33;;
50483;SDS011;36409;52.168;20.878;2024-02-21T03:16:37;33.10;;;14.27;;
50483;SDS011;36409;52.168;20.878;2024-02-21T03:19:07;34.17;;;15.03;;
50483;SDS011;36409;52.168;20.878;2024-02-21T03:21:41;33.77;;;16.97;;
50483;SDS011;36409;52.168;20.878;2024-02-21T03:24:11;33.00;;;16.57;;
50483;SDS011;36409;52.168;20.878;2024-02-21T03:26:43;37.70;;;17.07;;
50483;SDS011;36409;52.168;20.878;2024-02-21T03:29:14;37.10;;;17.13;;
50483;SDS011;36409;52.168;20.878;2024-02-21T03:31:44;39.07;;;18.30;;
50483;SDS011;36409;52.168;20.878;2024-02-21T03:34:16;33.80;;;16.70;;
50483;SDS011;36409;52.168;20.878;2024-02-21T03:36:45;39.37;;;16.50;;
50483;SDS011;36409;52.168;20.878;2024-02-21T03:39:14;36.70;;;16.37;;
50483;SDS011;36409;52.168;20.878;2024-02-21T03:41:44;33.83;;;16.20;;
50483;SDS011;36409;52.168;20.878;2024-02-21T03:44:16;28.23;;;13.47;;
50483;SDS011;36409;52.168;20.878;2024-02-21T03:46:45;31.03;;;13.50;;
50483;SDS011;36409;52.168;20.878;2024-02-21T03:49:17;30.17;;;13.63;;
50483;SDS011;36409;52.168;20.878;2024-02-21T03:51:46;33.87;;;13.23;;
50483;SDS011;36409;52.168;20.878;2024-02-21T03:54:15;26.10;;;11.93;;
50483;SDS011;36409;52.168;20.878;2024-02-21T03:56:45;29.37;;;11.40;;
50483;SDS011;36409;52.168;20.878;2024-02-21T03:59:17;29.23;;;12.23;;
50483;SDS011;36409;52.168;20.878;2024-02-21T04:01:47;26.17;;;10.67;;
50483;SDS011;36409;52.168;20.878;2024-02-21T04:04:28;24.67;;;11.40;;
50483;SDS011;36409;52.168;20.878;2024-02-21T04:06:59;25.10;;;10.93;;
50483;SDS011;36409;52.168;20.878;2024-02-21T04:09:29;27.80;;;10.77;;
50483;SDS011;36409;52.168;20.878;2024-02-21T04:12:01;23.87;;;10.40;;
50483;SDS011;36409;52.168;20.878;2024-02-21T04:14:33;27.97;;;10.30;;
50483;SDS011;36409;52.168;20.878;2024-02-21T04:17:04;28.23;;;10.23;;
50483;SDS011;36409;52.168;20.878;2024-02-21T04:19:34;23.17;;;9.47;;
50483;SDS011;36409;52.168;20.878;2024-02-21T04:22:07;25.43;;;9.93;;
50483;SDS011;36409;52.168;20.878;2024-02-21T04:24:36;23.37;;;10.07;;
50483;SDS011;36409;52.168;20.878;2024-02-21T04:27:05;27.83;;;10.53;;
50483;SDS011;36409;52.168;20.878;2024-02-21T04:29:37;23.80;;;9.63;;
50483;SDS011;36409;52.168;20.878;2024-02-21T04:32:06;23.40;;;9.63;;
50483;SDS011;36409;52.168;20.878;2024-02-21T04:34:36;27.07;;;10.53;;
50483;SDS011;36409;52.168;20.878;2024-02-21T04:37:06;30.33;;;11.20;;
50483;SDS011;36409;52.168;20.878;2024-02-21T04:39:35;25.77;;;9.90;;
50483;SDS011;36409;52.168;20.878;2024-02-21T04:42:04;23.33;;;10.20;;
50483;SDS011;36409;52.168;20.878;2024-02-21T04:44:34;23.30;;;9.73;;
50483;SDS011;36409;52.168;20.878;2024-02-21T04:47:10;21.30;;;9.37;;
50483;SDS011;36409;52.168;20.878;2024-02-21T04:49:58;24.17;;;9.23;;
50483;SDS011;36409;52.168;20.878;2024-02-21T04:52:27;19.67;;;10.20;;
50483;SDS011;36409;52.168;20.878;2024-02-21T04:54:57;28.43;;;10.90;;
50483;SDS011;36409;52.168;20.878;2024-02-21T04:57:27;26.47;;;10.73;;
50483;SDS011;36409;52.168;20.878;2024-02-21T04:59:57;25.07;;;10.73;;
50483;SDS011;36409;52.168;20.878;2024-02-21T05:02:26;24.43;;;11.27;;
50483;SDS011;36409;52.168;20.878;2024-02-21T05:04:55;28.37;;;10.27;;
50483;SDS011;36409;52.168;20.878;2024-02-21T05:07:27;22.37;;;11.17;;
50483;SDS011;36409;52.168;20.878;2024-02-21T05:09:56;27.33;;;11.10;;
50483;SDS011;36409;52.168;20.878;2024-02-21T05:12:28;22.63;;;10.90;;
50483;SDS011;36409;52.168;20.878;2024-02-21T05:14:57;23.60;;;11.23;;
50483;SDS011;36409;52.168;20.878;2024-02-21T05:17:34;28.70;;;11.65;;
50483;SDS011;36409;52.168;20.878;2024-02-21T05:20:04;27.67;;;10.93;;
50483;SDS011;36409;52.168;20.878;2024-02-21T05:22:36;26.77;;;11.50;;
50483;SDS011;36409;52.168;20.878;2024-02-21T05:25:08;28.93;;;12.07;;
50483;SDS011;36409;52.168;20.878;2024-02-21T05:27:37;24.07;;;12.20;;
50483;SDS011;36409;52.168;20.878;2024-02-21T05:30:12;29.20;;;11.83;;
50483;SDS011;36409;52.168;20.878;2024-02-21T05:35:12;28.97;;;11.13;;
50483;SDS011;36409;52.168;20.878;2024-02-21T05:37:49;22.53;;;10.87;;
50483;SDS011;36409;52.168;20.878;2024-02-21T05:40:27;24.33;;;10.80;;
50483;SDS011;36409;52.168;20.878;2024-02-21T05:42:57;26.13;;;11.70;;
50483;SDS011;36409;52.168;20.878;2024-02-21T05:45:29;32.70;;;11.80;;
50483;SDS011;36409;52.168;20.878;2024-02-21T05:48:04;31.07;;;12.37;;
50483;SDS011;36409;52.168;20.878;2024-02-21T05:50:35;25.67;;;12.03;;
50483;SDS011;36409;52.168;20.878;2024-02-21T05:53:05;29.10;;;12.73;;
50483;SDS011;36409;52.168;20.878;2024-02-21T05:55:37;32.13;;;13.33;;
50483;SDS011;36409;52.168;20.878;2024-02-21T05:58:09;32.37;;;15.27;;
50483;SDS011;36409;52.168;20.878;2024-02-21T06:00:49;29.37;;;13.13;;
50483;SDS011;36409;52.168;20.878;2024-02-21T06:03:18;29.40;;;14.20;;
50483;SDS011;36409;52.168;20.878;2024-02-21T06:05:48;33.93;;;13.53;;
50483;SDS011;36409;52.168;20.878;2024-02-21T06:08:17;34.17;;;14.00;;
50483;SDS011;36409;52.168;20.878;2024-02-21T06:10:48;32.40;;;14.70;;
50483;SDS011;36409;52.168;20.878;2024-02-21T06:13:21;31.43;;;14.67;;
50483;SDS011;36409;52.168;20.878;2024-02-21T06:15:55;32.43;;;15.03;;
50483;SDS011;36409;52.168;20.878;2024-02-21T06:18:26;38.90;;;16.53;;
50483;SDS011;36409;52.168;20.878;2024-02-21T06:20:58;35.60;;;14.87;;
50483;SDS011;36409;52.168;20.878;2024-02-21T06:23:41;32.47;;;14.67;;
50483;SDS011;36409;52.168;20.878;2024-02-21T06:26:19;37.67;;;16.07;;
50483;SDS011;36409;52.168;20.878;2024-02-21T06:28:56;34.40;;;14.90;;
50483;SDS011;36409;52.168;20.878;2024-02-21T06:31:27;30.90;;;14.90;;
50483;SDS011;36409;52.168;20.878;2024-02-21T06:34:16;37.17;;;15.67;;
50483;SDS011;36409;52.168;20.878;2024-02-21T06:36:52;41.10;;;16.73;;
50483;SDS011;36409;52.168;20.878;2024-02-21T06:39:21;34.03;;;15.33;;
50483;SDS011;36409;52.168;20.878;2024-02-21T06:41:51;35.70;;;15.93;;
50483;SDS011;36409;52.168;20.878;2024-02-21T06:44:26;36.40;;;15.23;;
50483;SDS011;36409;52.168;20.878;2024-02-21T06:47:00;38.27;;;16.00;;
50483;SDS011;36409;52.168;20.878;2024-02-21T06:49:30;38.87;;;17.30;;
50483;SDS011;36409;52.168;20.878;2024-02-21T06:52:02;35.13;;;14.90;;
50483;SDS011;36409;52.168;20.878;2024-02-21T06:54:32;36.00;;;16.50;;
50483;SDS011;36409;52.168;20.878;2024-02-21T06:57:01;41.33;;;16.90;;
50483;SDS011;36409;52.168;20.878;2024-02-21T06:59:37;38.87;;;16.03;;
50483;SDS011;36409;52.168;20.878;2024-02-21T07:02:06;34.87;;;16.10;;
50483;SDS011;36409;52.168;20.878;2024-02-21T07:04:46;38.97;;;16.17;;
50483;SDS011;36409;52.168;20.878;2024-02-21T07:07:18;28.70;;;14.43;;
50483;SDS011;36409;52.168;20.878;2024-02-21T07:09:50;35.67;;;15.87;;
50483;SDS011;36409;52.168;20.878;2024-02-21T07:12:20;36.30;;;16.33;;
50483;SDS011;36409;52.168;20.878;2024-02-21T07:14:49;36.63;;;16.17;;
50483;SDS011;36409;52.168;20.878;2024-02-21T07:17:21;37.37;;;16.83;;
50483;SDS011;36409;52.168;20.878;2024-02-21T07:19:50;41.70;;;17.07;;
50483;SDS011;36409;52.168;20.878;2024-02-21T07:22:20;34.93;;;15.87;;
50483;SDS011;36409;52.168;20.878;2024-02-21T07:24:54;36.47;;;16.90;;
50483;SDS011;36409;52.168;20.878;2024-02-21T07:27:29;39.43;;;16.23;;
50483;SDS011;36409;52.168;20.878;2024-02-21T07:30:05;41.67;;;16.33;;
50483;SDS011;36409;52.168;20.878;2024-02-21T07:32:35;34.18;;;15.60;;
50483;SDS011;36409;52.168;20.878;2024-02-21T07:35:09;33.97;;;15.30;;
50483;SDS011;36409;52.168;20.878;2024-02-21T07:37:44;39.37;;;15.93;;
50483;SDS011;36409;52.168;20.878;2024-02-21T07:40:16;33.97;;;17.17;;
50483;SDS011;36409;52.168;20.878;2024-02-21T07:42:47;42.60;;;16.73;;
50483;SDS011;36409;52.168;20.878;2024-02-21T07:45:20;37.10;;;16.60;;
50483;SDS011;36409;52.168;20.878;2024-02-21T07:47:52;41.27;;;16.47;;
50483;SDS011;36409;52.168;20.878;2024-02-21T07:50:27;38.95;;;16.42;;
50483;SDS011;36409;52.168;20.878;2024-02-21T07:53:01;40.33;;;17.33;;
50483;SDS011;36409;52.168;20.878;2024-02-21T07:55:31;36.37;;;17.40;;
50483;SDS011;36409;52.168;20.878;2024-02-21T07:58:05;39.17;;;17.63;;
50483;SDS011;36409;52.168;20.878;2024-02-21T08:00:35;44.70;;;18.67;;
50483;SDS011;36409;52.168;20.878;2024-02-21T08:03:04;38.67;;;18.77;;
50483;SDS011;36409;52.168;20.878;2024-02-21T08:05:34;43.33;;;19.37;;
50483;SDS011;36409;52.168;20.878;2024-02-21T08:08:05;43.87;;;17.63;;
50483;SDS011;36409;52.168;20.878;2024-02-21T08:10:37;42.30;;;18.73;;
50483;SDS011;36409;52.168;20.878;2024-02-21T08:13:08;41.43;;;18.77;;
50483;SDS011;36409;52.168;20.878;2024-02-21T08:15:37;42.80;;;17.73;;
50483;SDS011;36409;52.168;20.878;2024-02-21T08:18:07;39.60;;;18.00;;
50483;SDS011;36409;52.168;20.878;2024-02-21T08:20:39;37.10;;;17.13;;
50483;SDS011;36409;52.168;20.878;2024-02-21T08:23:08;40.45;;;17.40;;
50483;SDS011;36409;52.168;20.878;2024-02-21T08:25:40;36.77;;;16.03;;
50483;SDS011;36409;52.168;20.878;2024-02-21T08:28:11;41.40;;;16.85;;
50483;SDS011;36409;52.168;20.878;2024-02-21T08:30:44;42.37;;;17.63;;
50483;SDS011;36409;52.168;20.878;2024-02-21T08:33:16;35.67;;;16.47;;
50483;SDS011;36409;52.168;20.878;2024-02-21T08:35:46;30.23;;;15.37;;
50483;SDS011;36409;52.168;20.878;2024-02-21T08:38:17;42.25;;;16.90;;
50483;SDS011;36409;52.168;20.878;2024-02-21T08:40:46;34.37;;;15.73;;
50483;SDS011;36409;52.168;20.878;2024-02-21T08:43:16;35.50;;;15.83;;
50483;SDS011;36409;52.168;20.878;2024-02-21T08:45:46;37.27;;;16.73;;
50483;SDS011;36409;52.168;20.878;2024-02-21T08:48:17;35.63;;;14.80;;
50483;SDS011;36409;52.168;20.878;2024-02-21T08:50:46;46.43;;;15.97;;
50483;SDS011;36409;52.168;20.878;2024-02-21T08:53:18;43.87;;;14.87;;
50483;SDS011;36409;52.168;20.878;2024-02-21T08:55:48;34.70;;;14.27;;
50483;SDS011;36409;52.168;20.878;2024-02-21T08:58:19;32.63;;;13.50;;
50483;SDS011;36409;52.168;20.878;2024-02-21T09:00:50;27.97;;;12.87;;
50483;SDS011;36409;52.168;20.878;2024-02-21T09:03:22;30.87;;;12.87;;
50483;SDS011;36409;52.168;20.878;2024-02-21T09:05:51;32.50;;;13.77;;
50483;SDS011;36409;52.168;20.878;2024-02-21T09:08:23;32.97;;;15.37;;
50483;SDS011;36409;52.168;20.878;2024-02-21T09:10:52;32.67;;;13.20;;
50483;SDS011;36409;52.168;20.878;2024-02-21T09:13:21;32.60;;;11.90;;
50483;SDS011;36409;52.168;20.878;2024-02-21T09:15:53;30.40;;;11.70;;
50483;SDS011;36409;52.168;20.878;2024-02-21T09:18:36;34.30;;;12.35;;
50483;SDS011;36409;52.168;20.878;2024-02-21T09:21:06;36.50;;;12.30;;
50483;SDS011;36409;52.168;20.878;2024-02-21T09:23:41;26.77;;;10.60;;
50483;SDS011;36409;52.168;20.878;2024-02-21T09:26:14;31.70;;;10.53;;
50483;SDS011;36409;52.168;20.878;2024-02-21T09:28:52;28.73;;;10.33;;
50483;SDS011;36409;52.168;20.878;2024-02-21T09:31:54;28.50;;;10.40;;
50483;SDS011;36409;52.168;20.878;2024-02-21T09:34:25;22.50;;;9.25;;
50483;SDS011;36409;52.168;20.878;2024-02-21T09:37:07;32.15;;;10.35;;
50483;SDS011;36409;52.168;20.878;2024-02-21T09:39:37;22.07;;;11.47;;
50483;SDS011;36409;52.168;20.878;2024-02-21T09:42:11;30.80;;;9.57;;
50483;SDS011;36409;52.168;20.878;2024-02-21T09:44:42;31.60;;;9.93;;
50483;SDS011;36409;52.168;20.878;2024-02-21T09:47:22;30.23;;;11.37;;
50483;SDS011;36409;52.168;20.878;2024-02-21T09:50:12;25.03;;;8.67;;
50483;SDS011;36409;52.168;20.878;2024-02-21T09:52:53;24.77;;;8.50;;
50483;SDS011;36409;52.168;20.878;2024-02-21T09:55:25;22.20;;;8.25;;
50483;SDS011;36409;52.168;20.878;2024-02-21T09:57:59;29.07;;;9.75;;
50483;SDS011;36409;52.168;20.878;2024-02-21T10:00:29;34.10;;;11.40;;
50483;SDS011;36409;52.168;20.878;2024-02-21T10:03:00;23.43;;;9.47;;
50483;SDS011;36409;52.168;20.878;2024-02-21T10:05:46;28.63;;;10.30;;
50483;SDS011;36409;52.168;20.878;2024-02-21T10:08:18;25.43;;;7.87;;
50483;SDS011;36409;52.168;20.878;2024-02-21T10:10:49;21.37;;;8.17;;
50483;SDS011;36409;52.168;20.878;2024-02-21T10:13:25;27.07;;;8.97;;
50483;SDS011;36409;52.168;20.878;2024-02-21T10:16:08;20.53;;;7.70;;
50483;SDS011;36409;52.168;20.878;2024-02-21T10:18:40;18.57;;;7.90;;
50483;SDS011;36409;52.168;20.878;2024-02-21T10:21:09;25.80;;;9.33;;
50483;SDS011;36409;52.168;20.878;2024-02-21T10:23:43;28.33;;;8.57;;
50483;SDS011;36409;52.168;20.878;2024-02-21T10:26:21;25.07;;;10.37;;
50483;SDS011;36409;52.168;20.878;2024-02-21T10:29:02;27.30;;;9.20;;
50483;SDS011;36409;52.168;20.878;2024-02-21T10:31:53;29.03;;;9.33;;
50483;SDS011;36409;52.168;20.878;2024-02-21T10:34:38;25.30;;;9.25;;
50483;SDS011;36409;52.168;20.878;2024-02-21T10:37:17;28.80;;;9.60;;
50483;SDS011;36409;52.168;20.878;2024-02-21T10:39:49;34.83;;;11.03;;
50483;SDS011;36409;52.168;20.878;2024-02-21T10:42:22;28.67;;;9.50;;
50483;SDS011;36409;52.168;20.878;2024-02-21T10:44:56;26.37;;;9.63;;
50483;SDS011;36409;52.168;20.878;2024-02-21T10:47:28;30.33;;;10.77;;
50483;SDS011;36409;52.168;20.878;2024-02-21T10:50:06;31.13;;;11.07;;
50483;SDS011;36409;52.168;20.878;2024-02-21T10:52:43;25.77;;;10.63;;
50483;SDS011;36409;52.168;20.878;2024-02-21T10:55:21;23.70;;;10.03;;
50483;SDS011;36409;52.168;20.878;2024-02-21T10:57:57;32.23;;;10.43;;
50483;SDS011;36409;52.168;20.878;2024-02-21T11:00:34;29.20;;;10.27;;
50483;SDS011;36409;52.168;20.878;2024-02-21T11:03:11;25.07;;;9.90;;
50483;SDS011;36409;52.168;20.878;2024-02-21T11:05:44;22.80;;;8.93;;
50483;SDS011;36409;52.168;20.878;2024-02-21T11:08:15;28.43;;;11.17;;
50483;SDS011;36409;52.168;20.878;2024-02-21T11:10:48;27.07;;;10.73;;
50483;SDS011;36409;52.168;20.878;2024-02-21T11:13:18;30.40;;;11.63;;
50483;SDS011;36409;52.168;20.878;2024-02-21T11:16:09;26.03;;;10.70;;
50483;SDS011;36409;52.168;20.878;2024-02-21T11:18:42;21.80;;;11.40;;
50483;SDS011;36409;52.168;20.878;2024-02-21T11:21:11;27.80;;;10.77;;
50483;SDS011;36409;52.168;20.878;2024-02-21T11:23:41;34.47;;;11.00;;
50483;SDS011;36409;52.168;20.878;2024-02-21T11:26:10;32.03;;;12.10;;
50483;SDS011;36409;52.168;20.878;2024-02-21T11:28:56;27.60;;;12.10;;
50483;SDS011;36409;52.168;20.878;2024-02-21T11:31:37;28.33;;;11.30;;
50483;SDS011;36409;52.168;20.878;2024-02-21T11:34:13;28.53;;;11.23;;
50483;SDS011;36409;52.168;20.878;2024-02-21T11:36:49;34.20;;;11.60;;
50483;SDS011;36409;52.168;20.878;2024-02-21T11:39:20;30.90;;;15.33;;
50483;SDS011;36409;52.168;20.878;2024-02-21T11:42:03;27.57;;;12.03;;
50483;SDS011;36409;52.168;20.878;2024-02-21T11:44:35;27.80;;;12.07;;
50483;SDS011;36409;52.168;20.878;2024-02-21T11:47:09;37.95;;;12.28;;
50483;SDS011;36409;52.168;20.878;2024-02-21T11:49:38;31.40;;;12.20;;
50483;SDS011;36409;52.168;20.878;2024-02-21T11:52:11;34.67;;;11.83;;
50483;SDS011;36409;52.168;20.878;2024-02-21T11:54:46;28.07;;;12.17;;
50483;SDS011;36409;52.168;20.878;2024-02-21T11:57:15;32.47;;;12.27;;
50483;SDS011;36409;52.168;20.878;2024-02-21T11:59:46;34.07;;;13.13;;
50483;SDS011;36409;52.168;20.878;2024-02-21T12:02:19;25.15;;;12.25;;
50483;SDS011;36409;52.168;20.878;2024-02-21T12:04:51;36.63;;;12.90;;
50483;SDS011;36409;52.168;20.878;2024-02-21T12:07:26;24.77;;;12.17;;
50483;SDS011;36409;52.168;20.878;2024-02-21T12:09:59;31.90;;;12.53;;
50483;SDS011;36409;52.168;20.878;2024-02-21T12:12:32;28.20;;;12.30;;
50483;SDS011;36409;52.168;20.878;2024-02-21T12:15:07;32.50;;;12.70;;
50483;SDS011;36409;52.168;20.878;2024-02-21T12:17:39;28.53;;;12.40;;
50483;SDS011;36409;52.168;20.878;2024-02-21T12:20:09;29.00;;;13.40;;
50483;SDS011;36409;52.168;20.878;2024-02-21T12:22:39;36.63;;;13.87;;
50483;SDS011;36409;52.168;20.878;2024-02-21T12:25:16;33.30;;;13.83;;
50483;SDS011;36409;52.168;20.878;2024-02-21T12:28:04;31.50;;;12.80;;
50483;SDS011;36409;52.168;20.878;2024-02-21T12:30:37;33.00;;;13.53;;
50483;SDS011;36409;52.168;20.878;2024-02-21T12:33:13;31.80;;;14.43;;
50483;SDS011;36409;52.168;20.878;2024-02-21T12:35:46;26.13;;;13.03;;
50483;SDS011;36409;52.168;20.878;2024-02-21T12:38:19;29.53;;;13.33;;
50483;SDS011;36409;52.168;20.878;2024-02-21T12:40:49;29.90;;;13.37;;
50483;SDS011;36409;52.168;20.878;2024-02-21T12:43:18;28.03;;;13.27;;
50483;SDS011;36409;52.168;20.878;2024-02-21T12:45:50;28.17;;;13.73;;
50483;SDS011;36409;52.168;20.878;2024-02-21T12:48:19;31.30;;;13.33;;
50483;SDS011;36409;52.168;20.878;2024-02-21T12:50:50;34.03;;;13.37;;
50483;SDS011;36409;52.168;20.878;2024-02-21T12:53:23;30.00;;;12.95;;
50483;SDS011;36409;52.168;20.878;2024-02-21T12:56:00;34.30;;;13.07;;
50483;SDS011;36409;52.168;20.878;2024-02-21T12:58:30;28.17;;;13.03;;
50483;SDS011;36409;52.168;20.878;2024-02-21T13:00:59;26.17;;;12.87;;
50483;SDS011;36409;52.168;20.878;2024-02-21T13:03:28;26.67;;;12.43;;
50483;SDS011;36409;52.168;20.878;2024-02-21T13:06:05;35.65;;;12.95;;
50483;SDS011;36409;52.168;20.878;2024-02-21T13:08:38;27.37;;;12.90;;
50483;SDS011;36409;52.168;20.878;2024-02-21T13:11:09;30.30;;;12.13;;
50483;SDS011;36409;52.168;20.878;2024-02-21T13:13:41;26.20;;;12.07;;
50483;SDS011;36409;52.168;20.878;2024-02-21T13:16:10;27.13;;;13.97;;
50483;SDS011;36409;52.168;20.878;2024-02-21T13:18:39;27.17;;;11.90;;
50483;SDS011;36409;52.168;20.878;2024-02-21T13:21:10;29.27;;;13.53;;
50483;SDS011;36409;52.168;20.878;2024-02-21T13:23:42;31.97;;;12.93;;
50483;SDS011;36409;52.168;20.878;2024-02-21T13:26:11;29.93;;;12.97;;
50483;SDS011;36409;52.168;20.878;2024-02-21T13:28:42;27.10;;;12.50;;
50483;SDS011;36409;52.168;20.878;2024-02-21T13:31:12;31.77;;;15.10;;
50483;SDS011;36409;52.168;20.878;2024-02-21T13:33:45;33.00;;;14.10;;
50483;SDS011;36409;52.168;20.878;2024-02-21T13:36:14;24.77;;;12.03;;
50483;SDS011;36409;52.168;20.878;2024-02-21T13:38:44;27.60;;;11.07;;
50483;SDS011;36409;52.168;20.878;2024-02-21T13:41:14;26.50;;;11.13;;
50483;SDS011;36409;52.168;20.878;2024-02-21T13:43:45;28.93;;;10.80;;
50483;SDS011;36409;52.168;20.878;2024-02-21T13:46:15;25.77;;;11.30;;
50483;SDS011;36409;52.168;20.878;2024-02-21T13:48:46;33.90;;;11.83;;
50483;SDS011;36409;52.168;20.878;2024-02-21T13:51:15;24.67;;;11.40;;
50483;SDS011;36409;52.168;20.878;2024-02-21T13:53:49;26.57;;;11.18;;
50483;SDS011;36409;52.168;20.878;2024-02-21T13:56:19;23.37;;;10.47;;
50483;SDS011;36409;52.168;20.878;2024-02-21T13:58:48;25.47;;;11.60;;
50483;SDS011;36409;52.168;20.878;2024-02-21T14:01:20;22.33;;;10.13;;
50483;SDS011;36409;52.168;20.878;2024-02-21T14:03:49;23.57;;;10.40;;
50483;SDS011;36409;52.168;20.878;2024-02-21T14:06:20;25.80;;;12.37;;
50483;SDS011;36409;52.168;20.878;2024-02-21T14:08:49;27.83;;;11.17;;
50483;SDS011;36409;52.168;20.878;2024-02-21T14:11:20;21.50;;;10.07;;
50483;SDS011;36409;52.168;20.878;2024-02-21T14:13:49;21.70;;;9.73;;
50483;SDS011;36409;52.168;20.878;2024-02-21T14:16:24;20.80;;;10.73;;
50483;SDS011;36409;52.168;20.878;2024-02-21T14:19:05;25.17;;;10.20;;
50483;SDS011;36409;52.168;20.878;2024-02-21T14:21:38;26.83;;;10.23;;
50483;SDS011;36409;52.168;20.878;2024-02-21T14:24:08;22.97;;;9.73;;
50483;SDS011;36409;52.168;20.878;2024-02-21T14:26:37;25.43;;;11.17;;
50483;SDS011;36409;52.168;20.878;2024-02-21T14:29:09;24.17;;;11.30;;
50483;SDS011;36409;52.168;20.878;2024-02-21T14:31:38;26.10;;;11.37;;
50483;SDS011;36409;52.168;20.878;2024-02-21T14:34:20;25.67;;;10.83;;
50483;SDS011;36409;52.168;20.878;2024-02-21T14:36:50;23.33;;;11.07;;
50483;SDS011;36409;52.168;20.878;2024-02-21T14:39:19;33.90;;;11.57;;
50483;SDS011;36409;52.168;20.878;2024-02-21T14:41:48;20.63;;;10.03;;
50483;SDS011;36409;52.168;20.878;2024-02-21T14:44:20;22.03;;;9.50;;
50483;SDS011;36409;52.168;20.878;2024-02-21T14:46:50;25.77;;;9.83;;